createdAt,value
2023-05-21T00:00:53.882Z,6.85
2023-05-21T00:05:57.089Z,6.88
2023-05-21T00:10:59.749Z,6.55
2023-05-21T00:16:02.485Z,6.82
2023-05-21T00:21:05.960Z,7.03
2023-05-21T00:26:08.696Z,7.10
2023-05-21T00:31:11.338Z,6.80
2023-05-21T00:36:16.576Z,6.70
2023-05-21T00:41:19.838Z,6.63
2023-05-21T00:46:23.260Z,6.43
2023-05-21T00:51:30.443Z,6.90
2023-05-21T00:56:33.313Z,6.10
2023-05-21T01:01:37.501Z,6.53
2023-05-21T01:06:40.299Z,6.00
2023-05-21T01:11:46.980Z,6.55
2023-05-21T01:16:50.814Z,5.80
2023-05-21T01:22:00.544Z,6.35
2023-05-21T01:27:06.742Z,6.10
2023-05-21T01:32:38.608Z,6.35
2023-05-21T01:37:49.621Z,5.88
2023-05-21T01:42:52.707Z,6.32
2023-05-21T01:47:56.640Z,6.07
2023-05-21T01:53:01.319Z,5.72
2023-05-21T01:58:04.411Z,5.95
2023-05-21T02:03:08.176Z,6.30
2023-05-21T02:08:11.373Z,5.68
2023-05-21T02:13:14.017Z,5.70
2023-05-21T02:18:17.101Z,5.97
2023-05-21T02:23:40.071Z,6.13
2023-05-21T02:28:42.798Z,6.22
2023-05-21T02:33:45.556Z,6.45
2023-05-21T02:38:48.309Z,6.18
2023-05-21T02:43:51.185Z,6.65
2023-05-21T02:48:54.644Z,6.63
2023-05-21T02:53:57.704Z,6.88
2023-05-21T02:59:00.356Z,6.50
2023-05-21T03:04:03.000Z,6.93
2023-05-21T03:09:06.086Z,7.13
2023-05-21T03:14:09.965Z,7.22
2023-05-21T03:19:13.367Z,7.72
2023-05-21T03:24:16.111Z,7.63
2023-05-21T03:29:18.888Z,8.13
2023-05-21T03:34:21.913Z,8.50
2023-05-21T03:39:25.589Z,8.90
2023-05-21T03:44:32.629Z,8.63
2023-05-21T03:50:09.348Z,8.73
2023-05-21T03:55:12.716Z,8.85
2023-05-21T04:00:16.002Z,9.63
2023-05-21T04:05:19.231Z,9.63
2023-05-21T04:10:23.260Z,10.93
2023-05-21T04:15:27.595Z,10.90
2023-05-21T04:20:31.088Z,11.43
2023-05-21T04:25:35.249Z,10.85
2023-05-21T04:30:38.481Z,11.95
2023-05-21T04:35:44.625Z,10.82
2023-05-21T04:40:50.814Z,12.35
2023-05-21T04:45:56.536Z,11.95
2023-05-21T04:50:59.985Z,11.13
2023-05-21T04:56:04.121Z,12.00
2023-05-21T05:01:08.973Z,9.30
2023-05-21T05:06:11.735Z,11.35
2023-05-21T05:11:15.205Z,10.27
2023-05-21T05:16:18.486Z,9.60
2023-05-21T05:21:22.661Z,11.15
2023-05-21T05:26:26.203Z,9.95
2023-05-21T05:31:28.979Z,8.90
2023-05-21T05:36:31.738Z,7.10
2023-05-21T05:41:34.495Z,7.50
2023-05-21T05:46:38.299Z,7.85
2023-05-21T05:51:41.640Z,8.25
2023-05-21T05:56:44.325Z,7.65
2023-05-21T06:01:47.344Z,8.07
2023-05-21T06:06:50.157Z,14.55
2023-05-21T06:11:52.933Z,13.15
2023-05-21T06:16:55.923Z,23.92
2023-05-21T06:21:59.257Z,13.13
2023-05-21T06:27:02.196Z,7.20
2023-05-21T06:32:05.361Z,5.72
2023-05-21T06:37:08.107Z,4.88
2023-05-21T06:42:10.966Z,5.07
2023-05-21T06:47:27.455Z,4.88
2023-05-21T06:52:31.918Z,4.57
2023-05-21T06:57:38.371Z,4.53
2023-05-21T07:02:41.711Z,4.57
2023-05-21T07:07:44.584Z,6.30
2023-05-21T07:12:47.210Z,5.60
2023-05-21T07:17:51.279Z,5.85
2023-05-21T07:22:55.064Z,5.25
2023-05-21T07:27:58.570Z,4.32
2023-05-21T07:33:01.420Z,4.18
2023-05-21T07:38:04.850Z,4.53
2023-05-21T07:43:07.876Z,5.45
2023-05-21T07:48:12.456Z,4.53
2023-05-21T07:53:25.736Z,5.13
2023-05-21T07:58:32.611Z,5.28
2023-05-21T08:03:35.602Z,5.43
2023-05-21T08:08:38.649Z,5.38
2023-05-21T08:13:41.720Z,3.78
2023-05-21T08:18:47.150Z,4.07
2023-05-21T08:23:53.053Z,4.32
2023-05-21T08:28:56.583Z,4.40
2023-05-21T08:33:59.268Z,4.22
2023-05-21T08:39:14.070Z,5.00
2023-05-21T08:44:24.211Z,5.22
2023-05-21T08:49:31.074Z,4.55
2023-05-21T08:54:34.393Z,4.80
2023-05-21T08:59:40.121Z,4.55
2023-05-21T09:04:50.059Z,4.28
2023-05-21T09:09:57.580Z,5.50
2023-05-21T09:15:02.176Z,5.00
2023-05-21T09:20:16.535Z,4.80
2023-05-21T09:25:30.062Z,4.07
2023-05-21T09:30:38.317Z,3.63
2023-05-21T09:35:47.437Z,4.05
2023-05-21T09:40:54.848Z,4.10
2023-05-21T09:46:02.016Z,3.90
2023-05-21T09:51:18.649Z,3.33
2023-05-21T09:56:23.676Z,4.13
2023-05-21T10:01:27.500Z,4.00
2023-05-21T10:06:33.759Z,3.72
2023-05-21T10:11:37.509Z,3.70
2023-05-21T10:16:40.992Z,3.78
2023-05-21T10:21:45.042Z,3.80
2023-05-21T10:26:51.400Z,3.95
2023-05-21T10:31:54.027Z,4.10
2023-05-21T10:36:58.588Z,4.00
2023-05-21T10:42:18.702Z,3.97
2023-05-21T10:47:46.131Z,3.60
2023-05-21T10:53:10.648Z,4.15
2023-05-21T10:58:29.848Z,4.00
2023-05-21T11:03:37.427Z,4.40
2023-05-21T11:08:48.112Z,4.70
2023-05-21T11:13:50.843Z,4.47
2023-05-21T11:18:55.136Z,4.22
2023-05-21T11:24:02.833Z,4.07
2023-05-21T11:29:05.867Z,3.47
2023-05-21T11:34:11.576Z,3.47
2023-05-21T11:39:22.264Z,3.72
2023-05-21T11:44:42.756Z,3.70
2023-05-21T11:49:46.455Z,4.53
2023-05-21T11:54:54.148Z,4.25
2023-05-21T12:00:01.460Z,4.70
2023-05-21T12:05:10.189Z,4.68
2023-05-21T12:10:13.393Z,4.47
2023-05-21T12:15:18.098Z,4.88
2023-05-21T12:20:21.216Z,4.35
2023-05-21T12:25:23.996Z,3.78
2023-05-21T12:30:27.204Z,4.28
2023-05-21T12:35:30.655Z,3.70
2023-05-21T12:40:38.198Z,3.50
2023-05-21T12:45:41.621Z,2.50
2023-05-21T12:50:44.386Z,1.55
2023-05-21T12:55:47.341Z,1.30
2023-05-21T13:00:49.965Z,1.40
2023-05-21T13:06:00.082Z,1.25
2023-05-21T13:11:03.589Z,1.90
2023-05-21T13:16:06.678Z,2.25
2023-05-21T13:21:09.394Z,2.00
2023-05-21T13:26:12.089Z,2.38
2023-05-21T13:31:15.734Z,2.10
2023-05-21T13:36:18.381Z,1.80
2023-05-21T13:41:21.372Z,2.10
2023-05-21T13:46:24.222Z,1.75
2023-05-21T13:56:33.997Z,2.10
2023-05-21T14:01:36.869Z,2.13
2023-05-21T14:06:39.773Z,2.35
2023-05-21T14:11:42.724Z,2.40
2023-05-21T14:16:47.383Z,2.45
2023-05-21T14:21:52.334Z,2.80
2023-05-21T14:26:54.976Z,2.00
2023-05-21T14:31:57.579Z,2.40
2023-05-21T14:37:00.354Z,2.67
2023-05-21T14:42:07.644Z,2.38
2023-05-21T14:47:10.342Z,2.35
2023-05-21T14:52:12.970Z,2.40
2023-05-21T14:57:15.664Z,2.63
2023-05-21T15:02:18.366Z,2.63
2023-05-21T15:07:21.114Z,2.72
2023-05-21T15:12:23.797Z,2.67
2023-05-21T15:17:26.643Z,2.58
2023-05-21T15:22:29.435Z,2.60
2023-05-21T15:27:32.425Z,3.28
2023-05-21T15:32:35.060Z,3.13
2023-05-21T15:37:37.723Z,2.95
2023-05-21T15:42:40.325Z,4.03
2023-05-21T15:47:43.352Z,3.67
2023-05-21T15:52:46.070Z,3.47
2023-05-21T15:57:48.708Z,3.28
2023-05-21T16:02:51.574Z,3.03
2023-05-21T16:07:54.222Z,2.53
2023-05-21T16:12:56.908Z,2.35
2023-05-21T16:17:59.632Z,2.47
2023-05-21T16:23:03.841Z,2.13
2023-05-21T16:28:06.467Z,2.15
2023-05-21T16:33:09.750Z,2.45
2023-05-21T16:38:12.567Z,2.80
2023-05-21T16:43:15.888Z,2.60
2023-05-21T16:48:18.798Z,2.20
2023-05-21T16:53:21.787Z,2.80
2023-05-21T16:58:24.559Z,3.03
2023-05-21T17:03:27.938Z,3.30
2023-05-21T17:08:30.725Z,2.83
2023-05-21T17:13:33.616Z,3.47
2023-05-21T17:18:36.182Z,4.07
2023-05-21T17:23:38.901Z,4.00
2023-05-21T17:28:41.748Z,3.55
2023-05-21T17:33:44.350Z,3.45
2023-05-21T17:38:47.027Z,2.90
2023-05-21T17:43:50.361Z,3.03
2023-05-21T17:48:53.206Z,3.78
2023-05-21T17:53:56.393Z,3.65
2023-05-21T17:58:59.107Z,3.42
2023-05-21T18:04:02.981Z,3.90
2023-05-21T18:09:10.574Z,3.42
2023-05-21T18:14:13.234Z,5.60
2023-05-21T18:19:15.933Z,4.80
2023-05-21T18:24:18.675Z,7.68
2023-05-21T18:29:21.270Z,7.38
2023-05-21T18:34:23.907Z,30.02
2023-05-21T18:39:27.882Z,8.85
2023-05-21T18:44:32.651Z,5.88
2023-05-21T18:49:36.208Z,5.30
2023-05-21T18:54:39.236Z,6.18
2023-05-21T18:59:41.833Z,10.25
2023-05-21T19:04:44.640Z,8.13
2023-05-21T19:09:48.828Z,7.38
2023-05-21T19:14:51.941Z,7.57
2023-05-21T19:19:56.236Z,6.88
2023-05-21T19:24:59.562Z,6.28
2023-05-21T19:30:02.218Z,8.60
2023-05-21T19:35:11.408Z,8.55
2023-05-21T19:40:14.141Z,7.78
2023-05-21T19:45:16.761Z,6.75
2023-05-21T19:50:19.490Z,6.53
2023-05-21T19:55:22.821Z,7.20
2023-05-21T20:00:26.419Z,7.38
2023-05-21T20:05:29.027Z,7.90
2023-05-21T20:10:31.676Z,7.43
2023-05-21T20:15:34.401Z,14.73
2023-05-21T20:20:38.165Z,7.80
2023-05-21T20:25:41.133Z,7.45
2023-05-21T20:30:57.731Z,7.40
2023-05-21T20:36:01.139Z,6.65
2023-05-21T20:41:04.913Z,7.20
2023-05-21T20:46:07.920Z,7.07
2023-05-21T20:51:11.192Z,7.88
2023-05-21T20:56:17.012Z,7.25
2023-05-21T21:01:21.036Z,6.68
2023-05-21T21:06:26.158Z,7.85
2023-05-21T21:11:28.775Z,7.25
2023-05-21T21:16:31.376Z,7.55
2023-05-21T21:21:34.181Z,8.50
2023-05-21T21:26:37.469Z,8.38
2023-05-21T21:31:40.308Z,8.48
2023-05-21T21:36:42.937Z,9.00
2023-05-21T21:41:45.975Z,8.77
2023-05-21T21:46:51.610Z,8.93
2023-05-21T21:51:57.828Z,8.20
2023-05-21T21:57:00.863Z,8.52
2023-05-21T22:02:03.486Z,9.27
2023-05-21T22:07:06.203Z,9.23
2023-05-21T22:12:09.545Z,8.45
2023-05-21T22:17:12.213Z,7.65
2023-05-21T22:22:14.881Z,8.30
2023-05-21T22:27:17.471Z,8.43
2023-05-21T22:32:20.336Z,8.23
2023-05-21T22:37:26.199Z,9.32
2023-05-21T22:42:28.830Z,10.07
2023-05-21T22:47:32.313Z,10.60
2023-05-21T22:52:35.179Z,11.65
2023-05-21T22:57:38.094Z,10.00
2023-05-21T23:02:40.851Z,9.85
2023-05-21T23:07:43.524Z,10.68
2023-05-21T23:12:46.154Z,10.13
2023-05-21T23:17:48.951Z,11.32
2023-05-21T23:22:52.466Z,10.80
2023-05-21T23:27:55.636Z,9.90
2023-05-21T23:32:58.292Z,10.50
2023-05-21T23:38:01.028Z,9.68
2023-05-21T23:43:04.887Z,10.32
2023-05-21T23:48:07.882Z,10.32
2023-05-21T23:53:10.800Z,10.63
2023-05-21T23:58:13.422Z,9.18
